Time;durP1;ratioP1;P1;durP2;ratioP2;P2;SDS_P1;SDS_P2;PMS_P1;PMS_P2;Temp;Humidity;BMP_temperature;BMP_pressure;BME280_temperature;BME280_humidity;BME280_pressure;Samples;Min_cycle;Max_cycle;Signal;HPM_P1;HPM_P2
2021/05/27 00:00:53;;;;;;;1.95;0.80;;;;;;;14.26;77.63;99813.67;1727523;82;22234;-56
2021/05/27 00:03:19;;;;;;;3.08;0.80;;;;;;;14.31;77.71;99814.25;1745402;80;21022;-56
2021/05/27 00:05:45;;;;;;;2.70;1.27;;;;;;;14.37;77.69;99807.12;1728803;82;21331;-56
2021/05/27 00:08:13;;;;;;;1.92;0.90;;;;;;;14.38;77.71;99809.73;1728030;82;21444;-57
2021/05/27 00:10:41;;;;;;;1.32;1.22;;;;;;;14.40;77.64;99806.94;1727877;82;21137;-56
2021/05/27 00:13:07;;;;;;;5.65;1.00;;;;;;;14.39;77.55;99809.25;1728741;81;21681;-56
2021/05/27 00:15:33;;;;;;;1.32;1.15;;;;;;;14.39;77.57;99806.55;1729492;81;21000;-56
2021/05/27 00:18:01;;;;;;;2.50;0.98;;;;;;;14.37;77.65;99801.70;1744934;80;21098;-56
2021/05/27 00:20:28;;;;;;;3.47;1.00;;;;;;;14.38;77.82;99807.02;1729272;82;21733;-56
2021/05/27 00:22:54;;;;;;;1.60;1.00;;;;;;;14.39;77.90;99799.77;1722562;81;21137;-57
2021/05/27 00:25:20;;;;;;;4.42;0.90;;;;;;;14.37;77.97;99807.12;1724332;82;21123;-56
2021/05/27 00:27:47;;;;;;;6.78;0.90;;;;;;;14.37;78.18;99805.25;1728759;81;21088;-56
2021/05/27 00:30:14;;;;;;;2.90;1.15;;;;;;;14.39;78.27;99805.19;1749244;80;21141;-56
2021/05/27 00:32:41;;;;;;;6.33;1.20;;;;;;;14.43;78.33;99801.34;1728969;82;21629;-56
2021/05/27 00:35:09;;;;;;;3.58;1.10;;;;;;;14.47;78.38;99796.58;1730281;82;21977;-55
2021/05/27 00:37:36;;;;;;;3.27;1.00;;;;;;;14.48;78.49;99791.07;1727835;82;21152;-56
2021/05/27 00:40:05;;;;;;;1.98;0.95;;;;;;;14.50;78.48;99793.69;1745379;80;21118;-57
2021/05/27 00:42:32;;;;;;;3.00;1.00;;;;;;;14.54;78.39;99792.54;1722896;81;21082;-56
2021/05/27 00:45:09;;;;;;;2.60;1.15;;;;;;;14.54;78.41;99789.83;1776322;78;21075;-55
2021/05/27 00:47:37;;;;;;;4.67;1.10;;;;;;;14.55;78.44;99792.89;1775075;78;21062;-55
2021/05/27 00:50:07;;;;;;;1.32;1.00;;;;;;;14.56;78.56;99790.58;1776883;78;21831;-56
2021/05/27 00:52:33;;;;;;;4.12;1.10;;;;;;;14.58;78.58;99785.94;1775427;78;21399;-56
2021/05/27 00:55:02;;;;;;;2.42;1.37;;;;;;;14.59;78.57;99787.20;1777190;78;21600;-56
2021/05/27 00:57:35;;;;;;;1.10;1.00;;;;;;;14.60;78.56;99789.43;1775474;78;21099;-56
2021/05/27 01:00:12;;;;;;;1.75;1.32;;;;;;;14.62;78.65;99790.21;1774856;78;21883;-56
2021/05/27 01:02:39;;;;;;;2.05;1.50;;;;;;;14.66;78.85;99789.90;1773233;78;21020;-56
2021/05/27 01:05:07;;;;;;;2.60;1.67;;;;;;;14.66;78.85;99789.90;1773325;78;21454;-56
2021/05/27 01:07:35;;;;;;;2.10;1.30;;;;;;;14.67;78.81;99787.58;1778513;78;20904;-57
2021/05/27 01:10:08;;;;;;;3.70;1.30;;;;;;;14.70;78.82;99790.58;1774522;78;20963;-56
2021/05/27 01:12:34;;;;;;;1.85;1.05;;;;;;;14.70;78.78;99783.81;1778340;78;21202;-55
2021/05/27 01:17:50;;;;;;;2.52;1.95;;;;;;;14.73;78.80;99781.75;1751026;78;21094;-56
2021/05/27 01:20:19;;;;;;;1.30;1.20;;;;;;;14.74;78.85;99783.50;1771501;78;21056;-57
2021/05/27 01:22:45;;;;;;;1.10;1.00;;;;;;;14.76;78.89;99786.11;1781402;78;21613;-56
2021/05/27 01:25:13;;;;;;;4.22;1.40;;;;;;;14.79;78.85;99787.28;1776035;78;20980;-56
2021/05/27 01:27:40;;;;;;;4.40;1.27;;;;;;;14.81;78.81;99785.32;1771256;78;21125;-56
2021/05/27 01:30:09;;;;;;;1.50;1.30;;;;;;;14.84;78.81;99789.67;1776023;78;21091;-56
2021/05/27 01:32:37;;;;;;;3.25;2.90;;;;;;;14.84;78.79;99778.84;1774068;78;20976;-57
2021/05/27 01:35:06;;;;;;;4.40;1.50;;;;;;;14.83;78.69;99777.97;1773778;78;20955;-57
2021/05/27 01:37:32;;;;;;;1.62;1.52;;;;;;;14.83;78.73;99785.22;1776812;78;20909;-56
2021/05/27 01:39:58;;;;;;;1.52;1.42;;;;;;;14.81;78.83;99777.67;1772570;78;21027;-56
2021/05/27 01:42:25;;;;;;;7.00;1.95;;;;;;;14.80;78.84;99782.73;1772196;78;21161;-56
2021/05/27 01:44:51;;;;;;;3.27;1.55;;;;;;;14.80;78.77;99782.73;1778441;78;21068;-57
2021/05/27 01:47:18;;;;;;;2.83;1.35;;;;;;;14.80;78.71;99784.92;1769374;78;21124;-56
2021/05/27 01:49:44;;;;;;;1.72;1.10;;;;;;;14.80;78.71;99786.80;1757131;78;21087;-58
2021/05/27 01:52:12;;;;;;;3.72;1.10;;;;;;;14.79;78.74;99775.57;1772862;78;21134;-58
2021/05/27 01:54:40;;;;;;;1.67;1.02;;;;;;;14.73;78.95;99779.53;1750476;78;22066;-58
2021/05/27 01:57:07;;;;;;;1.67;1.37;;;;;;;14.71;78.67;99780.14;1771048;78;21749;-57
2021/05/27 01:59:33;;;;;;;4.22;1.52;;;;;;;14.71;78.67;99780.14;1773083;78;21745;-58
2021/05/27 02:02:00;;;;;;;1.60;1.50;;;;;;;14.67;78.76;99769.97;1777342;78;21369;-57
2021/05/27 02:04:26;;;;;;;7.17;1.90;;;;;;;14.62;78.83;99776.19;1775559;78;21074;-58
2021/05/27 02:06:53;;;;;;;3.95;1.27;;;;;;;14.59;78.88;99774.14;1742764;80;20990;-56
2021/05/27 02:09:20;;;;;;;6.65;1.45;;;;;;;14.57;78.98;99776.07;1734643;80;20900;-58
2021/05/27 02:11:53;;;;;;;3.45;1.32;;;;;;;14.56;79.15;99772.49;1776964;78;21521;-58
2021/05/27 02:14:21;;;;;;;4.08;1.90;;;;;;;14.58;79.23;99776.46;1776876;78;20944;-57
2021/05/27 02:16:47;;;;;;;2.45;1.67;;;;;;;14.60;79.31;99781.30;1774304;78;21649;-57
2021/05/27 02:19:13;;;;;;;4.35;3.00;;;;;;;14.60;79.39;99767.28;1771946;78;21443;-56
2021/05/27 02:21:44;;;;;;;3.33;1.67;;;;;;;14.66;79.45;99772.77;1777922;78;20917;-57
2021/05/27 02:24:13;;;;;;;1.22;1.12;;;;;;;14.75;79.53;99761.34;1779346;78;21696;-58
2021/05/27 02:26:40;;;;;;;1.32;1.22;;;;;;;14.75;79.53;99761.34;1778502;78;20975;-58
2021/05/27 02:29:11;;;;;;;3.30;2.00;;;;;;;14.78;79.47;99766.57;1774805;78;21102;-56
2021/05/27 02:31:40;;;;;;;3.00;2.58;;;;;;;14.78;79.50;99762.51;1775877;78;21845;-59
2021/05/27 02:34:08;;;;;;;2.27;1.82;;;;;;;14.79;79.45;99763.38;1772921;78;20989;-57
2021/05/27 02:36:37;;;;;;;2.10;1.42;;;;;;;14.80;79.55;99765.13;1772728;78;21455;-58
2021/05/27 02:39:07;;;;;;;4.05;1.70;;;;;;;14.81;79.54;99765.48;1773346;78;20972;-57
2021/05/27 02:41:50;;;;;;;5.33;1.40;;;;;;;14.81;79.54;99765.48;1774927;78;21463;-58
2021/05/27 02:44:18;;;;;;;2.08;1.98;;;;;;;14.81;79.74;99759.58;1754265;78;20892;-57
2021/05/27 02:46:48;;;;;;;6.28;1.35;;;;;;;14.92;79.81;99761.11;1747744;80;20995;-57
2021/05/27 02:49:15;;;;;;;5.40;2.08;;;;;;;14.92;79.81;99761.11;1744065;80;21581;-56
2021/05/27 02:51:43;;;;;;;4.42;1.35;;;;;;;14.97;79.83;99752.17;1745567;80;20959;-58
2021/05/27 02:54:09;;;;;;;4.30;2.05;;;;;;;15.03;79.86;99749.08;1744694;80;21411;-58
2021/05/27 02:56:37;;;;;;;4.25;1.92;;;;;;;15.10;79.97;99749.05;1748253;80;21293;-58
2021/05/27 02:59:05;;;;;;;2.17;2.08;;;;;;;15.16;79.83;99740.98;1741329;80;21083;-58
2021/05/27 03:01:33;;;;;;;3.50;1.60;;;;;;;15.15;79.91;99737.39;1745108;80;21090;-56
2021/05/27 03:04:00;;;;;;;2.27;1.40;;;;;;;15.15;79.91;99737.39;1744487;80;21102;-59
2021/05/27 03:06:26;;;;;;;1.77;1.57;;;;;;;15.20;79.72;99738.46;1743605;80;21684;-58
2021/05/27 03:08:54;;;;;;;3.08;1.70;;;;;;;15.24;79.80;99736.39;1745182;80;21624;-57
2021/05/27 03:11:22;;;;;;;2.33;1.92;;;;;;;15.28;79.84;99735.23;1741611;80;21118;-58
2021/05/27 03:13:52;;;;;;;2.58;1.75;;;;;;;15.34;79.91;99744.30;1743998;80;21134;-58
2021/05/27 03:16:20;;;;;;;1.57;1.35;;;;;;;15.39;79.91;99747.58;1749281;80;21352;-58
2021/05/27 03:18:49;;;;;;;2.70;1.37;;;;;;;15.44;79.92;99749.48;1710173;80;21165;-56
2021/05/27 03:21:17;;;;;;;1.72;1.57;;;;;;;15.49;79.91;99750.02;1708786;80;21114;-58
2021/05/27 03:23:45;;;;;;;2.67;1.62;;;;;;;15.54;79.77;99747.92;1744411;80;21107;-56
2021/05/27 03:26:14;;;;;;;3.45;2.25;;;;;;;15.57;79.56;99748.20;1742520;80;21103;-58
2021/05/27 03:28:43;;;;;;;3.08;2.75;;;;;;;15.55;79.27;99751.50;1748731;80;21135;-58
2021/05/27 03:31:11;;;;;;;5.22;4.35;;;;;;;15.52;79.18;99745.76;1735165;80;21564;-59
2021/05/27 03:33:39;;;;;;;3.98;3.65;;;;;;;15.51;79.25;99747.59;1745628;80;21457;-58
2021/05/27 03:36:06;;;;;;;5.53;4.55;;;;;;;15.52;79.32;99747.98;1742827;80;21056;-56
2021/05/27 03:38:34;;;;;;;4.90;4.67;;;;;;;15.54;79.41;99747.05;1740969;80;21398;-57
2021/05/27 03:41:00;;;;;;;5.97;4.95;;;;;;;15.61;79.46;99742.93;1747048;80;21680;-58
2021/05/27 03:43:26;;;;;;;7.75;4.67;;;;;;;15.67;79.57;99738.42;1751176;78;21131;-57
2021/05/27 03:45:53;;;;;;;6.28;5.10;;;;;;;15.74;79.61;99737.89;1775235;78;21041;-57
2021/05/27 03:48:20;;;;;;;5.45;5.00;;;;;;;15.82;79.62;99737.39;1775270;78;21073;-57
2021/05/27 03:50:47;;;;;;;6.15;3.77;;;;;;;15.91;79.66;99736.71;1776931;78;21210;-58
2021/05/27 03:53:16;;;;;;;6.12;5.62;;;;;;;15.99;79.63;99732.97;1776107;78;21194;-58
2021/05/27 03:55:44;;;;;;;10.93;9.70;;;;;;;16.10;79.57;99724.94;1774882;78;21509;-58
2021/05/27 04:00:57;;;;;;;15.38;11.68;;;;;;;16.30;79.24;99732.16;1777004;78;21055;-58
2021/05/27 04:07:03;;;;;;;14.80;12.10;;;;;;;16.39;79.17;99736.92;1775753;78;21105;-57
2021/05/27 04:08:41;;;;;;;10.28;8.93;;;;;;;16.50;78.73;99736.50;1772242;78;21768;-58
2021/05/27 04:11:09;;;;;;;10.90;9.88;;;;;;;16.54;78.53;99721.73;1775254;78;21119;-57
2021/05/27 04:13:35;;;;;;;10.32;9.30;;;;;;;16.57;78.47;99722.88;1771544;78;21103;-57
2021/05/27 04:16:02;;;;;;;10.82;9.73;;;;;;;16.62;78.39;99723.91;1774080;78;21574;-58
2021/05/27 04:18:30;;;;;;;13.18;10.50;;;;;;;16.67;78.35;99737.19;1769773;78;21512;-58
2021/05/27 04:20:57;;;;;;;11.08;10.18;;;;;;;16.72;78.38;99739.06;1773854;78;21794;-56
2021/05/27 04:23:40;;;;;;;9.95;9.05;;;;;;;16.78;78.32;99744.03;1774359;78;21143;-57
2021/05/27 04:26:09;;;;;;;7.28;6.60;;;;;;;16.81;78.25;99727.52;1739273;80;21639;-58
2021/05/27 04:28:37;;;;;;;8.08;7.37;;;;;;;16.85;78.29;99733.08;1739939;80;21416;-58
2021/05/27 04:31:16;;;;;;;6.12;5.70;;;;;;;16.88;78.39;99737.81;1742429;80;20987;-56
2021/05/27 04:33:54;;;;;;;7.70;7.12;;;;;;;16.92;78.47;99728.95;1726288;81;21120;-58
2021/05/27 04:36:21;;;;;;;5.83;5.40;;;;;;;16.94;78.47;99728.31;1725829;81;21108;-58
2021/05/27 04:38:49;;;;;;;7.08;6.03;;;;;;;16.97;78.36;99730.82;1725342;81;21128;-56
2021/05/27 04:41:17;;;;;;;9.78;6.75;;;;;;;17.01;78.27;99726.91;1742405;80;20916;-57
2021/05/27 04:43:46;;;;;;;6.65;6.25;;;;;;;17.05;78.10;99721.59;1742934;80;21517;-57
2021/05/27 04:46:14;;;;;;;8.35;7.47;;;;;;;17.12;78.05;99726.94;1773454;78;21029;-57
2021/05/27 04:48:40;;;;;;;9.60;8.45;;;;;;;17.21;77.98;99718.58;1773679;78;21213;-56
2021/05/27 04:51:06;;;;;;;9.15;8.20;;;;;;;17.31;77.79;99727.78;1776006;78;21170;-59
2021/05/27 04:53:33;;;;;;;11.08;7.75;;;;;;;17.37;77.69;99721.38;1770033;78;21075;-58
2021/05/27 04:56:03;;;;;;;6.92;5.95;;;;;;;17.46;77.67;99725.73;1774591;78;21075;-56
2021/05/27 04:58:32;;;;;;;6.33;5.05;;;;;;;17.55;77.44;99723.66;1774005;78;21242;-56
2021/05/27 05:00:59;;;;;;;5.08;4.12;;;;;;;17.67;77.22;99722.76;1776986;78;20921;-57
2021/05/27 05:03:26;;;;;;;5.28;3.87;;;;;;;17.76;77.11;99719.31;1780960;78;21458;-57
2021/05/27 05:05:52;;;;;;;4.33;3.65;;;;;;;17.87;76.98;99716.59;1772450;78;20974;-58
2021/05/27 05:08:18;;;;;;;5.50;4.53;;;;;;;17.98;76.66;99723.93;1773564;78;21734;-56
2021/05/27 05:10:45;;;;;;;5.15;4.37;;;;;;;18.07;76.23;99722.70;1773803;78;21499;-57
2021/05/27 05:13:12;;;;;;;10.20;5.42;;;;;;;18.16;75.82;99719.75;1748626;78;20936;-57
2021/05/27 05:15:40;;;;;;;8.00;4.55;;;;;;;18.23;75.26;99714.17;1776448;78;20936;-55
2021/05/27 05:18:11;;;;;;;2.42;2.33;;;;;;;18.28;74.92;99709.73;1780044;78;20976;-58
2021/05/27 05:20:42;;;;;;;4.80;2.70;;;;;;;18.36;74.17;99719.52;1780485;78;20948;-57
2021/05/27 05:23:10;;;;;;;2.42;1.62;;;;;;;18.42;73.67;99713.56;1774056;78;20948;-57
2021/05/27 05:25:39;;;;;;;4.62;1.65;;;;;;;18.50;73.32;99715.16;1776409;78;20924;-57
2021/05/27 05:28:05;;;;;;;4.17;1.47;;;;;;;18.56;73.18;99717.88;1776820;78;21340;-58
2021/05/27 05:30:32;;;;;;;4.30;1.35;;;;;;;18.62;72.54;99714.22;1777053;78;21501;-58
2021/05/27 05:32:58;;;;;;;5.35;1.40;;;;;;;18.70;72.12;99710.36;1779845;78;21505;-59
2021/05/27 05:35:25;;;;;;;1.10;1.00;;;;;;;18.80;71.65;99712.67;1779633;78;21009;-56
2021/05/27 05:37:53;;;;;;;1.30;1.20;;;;;;;18.91;71.11;99710.42;1786202;78;21577;-58
2021/05/27 05:40:22;;;;;;;1.50;1.40;;;;;;;19.01;70.89;99711.89;1773656;78;21023;-58
2021/05/27 05:42:48;;;;;;;2.85;1.40;;;;;;;19.10;70.02;99708.39;1772679;78;22394;-57
2021/05/27 05:45:16;;;;;;;4.80;1.60;;;;;;;19.15;69.20;99697.95;1770889;78;21851;-57
2021/05/27 05:47:47;;;;;;;3.80;1.30;;;;;;;19.21;68.69;99701.05;1771930;78;21768;-56
2021/05/27 05:50:14;;;;;;;1.27;1.10;;;;;;;19.27;68.07;99701.89;1771500;78;21035;-56
2021/05/27 05:52:41;;;;;;;1.42;0.95;;;;;;;19.35;67.47;99707.19;1775502;78;21687;-55
2021/05/27 05:55:09;;;;;;;2.95;1.50;;;;;;;19.41;67.36;99699.83;1770340;78;21589;-56
2021/05/27 05:57:36;;;;;;;2.27;1.27;;;;;;;19.48;67.46;99702.46;1748412;78;21072;-54
2021/05/27 06:00:05;;;;;;;2.25;2.00;;;;;;;19.53;67.67;99705.16;1770898;78;21417;-55
2021/05/27 06:02:33;;;;;;;2.02;1.82;;;;;;;19.59;67.36;99703.25;1770536;78;20969;-54
2021/05/27 06:05:00;;;;;;;1.57;1.47;;;;;;;19.65;66.64;99713.63;1759229;78;21059;-54
2021/05/27 06:07:36;;;;;;;4.05;2.05;;;;;;;19.70;66.17;99706.92;1753142;78;21849;-56
2021/05/27 06:10:02;;;;;;;2.35;1.82;;;;;;;19.73;65.92;99710.77;1778950;78;20944;-57
2021/05/27 06:12:28;;;;;;;5.53;1.67;;;;;;;19.77;65.92;99710.85;1772986;78;21079;-56
2021/05/27 06:14:56;;;;;;;4.05;2.37;;;;;;;19.79;65.79;99707.00;1777377;78;21068;-56
2021/05/27 06:17:22;;;;;;;1.55;1.45;;;;;;;19.81;65.41;99705.50;1775397;78;21091;-54
2021/05/27 06:19:49;;;;;;;2.25;1.32;;;;;;;19.85;65.51;99705.09;1774298;78;21083;-51
2021/05/27 06:22:20;;;;;;;2.58;1.20;;;;;;;19.93;65.41;99692.12;1769742;78;21093;-55
2021/05/27 06:24:49;;;;;;;1.67;1.20;;;;;;;20.01;64.96;99701.88;1775686;78;21072;-54
2021/05/27 06:27:15;;;;;;;2.05;1.30;;;;;;;20.11;64.89;99699.20;1775733;78;21544;-55
2021/05/27 06:29:41;;;;;;;3.00;1.40;;;;;;;20.19;64.05;99698.02;1777597;78;21116;-55
2021/05/27 06:32:08;;;;;;;2.80;1.45;;;;;;;20.26;63.90;99706.03;1781419;78;21126;-56
2021/05/27 06:34:35;;;;;;;1.90;1.70;;;;;;;20.30;63.63;99711.11;1780085;78;21597;-54
2021/05/27 06:37:03;;;;;;;1.95;1.85;;;;;;;20.35;63.60;99707.48;1776165;78;21525;-55
2021/05/27 06:39:31;;;;;;;6.25;3.10;;;;;;;20.44;63.67;99707.16;1771797;78;21077;-53
2021/05/27 06:41:57;;;;;;;5.40;2.52;;;;;;;20.53;63.49;99708.20;1776991;78;21118;-52
2021/05/27 06:44:24;;;;;;;4.95;2.22;;;;;;;20.58;62.95;99705.44;1773266;78;21092;-53
2021/05/27 06:46:50;;;;;;;3.22;2.80;;;;;;;20.64;62.89;99703.52;1774565;78;21093;-53
2021/05/27 06:49:16;;;;;;;2.95;1.90;;;;;;;20.67;62.38;99705.95;1777891;78;22419;-54
2021/05/27 06:51:45;;;;;;;2.15;2.00;;;;;;;20.71;62.32;99699.20;1773335;78;21107;-52
2021/05/27 06:54:11;;;;;;;7.12;2.08;;;;;;;20.80;62.06;99700.24;1776907;78;21060;-55
2021/05/27 06:56:38;;;;;;;2.05;1.70;;;;;;;20.89;62.25;99687.09;1771029;78;22013;-52
2021/05/27 06:59:04;;;;;;;4.40;2.80;;;;;;;20.99;62.49;99697.55;1773337;78;21122;-56
2021/05/27 07:01:31;;;;;;;3.15;1.60;;;;;;;21.07;61.53;99692.23;1776011;78;21754;-52
2021/05/27 07:03:57;;;;;;;3.17;2.10;;;;;;;21.18;61.25;99695.89;1735516;80;21245;-52
2021/05/27 07:06:24;;;;;;;1.95;1.85;;;;;;;21.28;61.47;99696.73;1774670;78;21583;-53
2021/05/27 07:08:50;;;;;;;3.25;1.82;;;;;;;21.36;61.50;99696.88;1771345;78;21279;-54
2021/05/27 07:11:17;;;;;;;1.52;1.42;;;;;;;21.45;61.23;99691.91;1772383;78;21121;-54
2021/05/27 07:13:44;;;;;;;2.95;1.72;;;;;;;21.51;60.21;99688.12;1773947;78;22478;-54
2021/05/27 07:16:10;;;;;;;2.72;1.57;;;;;;;21.58;59.80;99680.18;1778835;78;21611;-57
2021/05/27 07:18:38;;;;;;;4.90;1.40;;;;;;;21.61;59.90;99674.89;1741431;80;22197;-56
2021/05/27 07:21:04;;;;;;;1.92;1.82;;;;;;;21.63;59.60;99674.25;1781947;78;21017;-52
2021/05/27 07:23:31;;;;;;;2.87;1.85;;;;;;;21.69;59.38;99673.69;1781663;78;21135;-58
2021/05/27 07:26:03;;;;;;;2.25;1.60;;;;;;;21.73;59.39;99670.49;1774652;78;21044;-54
2021/05/27 07:28:29;;;;;;;2.47;1.87;;;;;;;21.79;59.45;99679.98;1773238;78;21050;-53
2021/05/27 07:30:56;;;;;;;2.80;1.60;;;;;;;21.81;59.62;99668.38;1782788;78;21055;-55
2021/05/27 07:33:23;;;;;;;3.47;1.60;;;;;;;21.84;58.81;99674.95;1771542;78;21912;-52
2021/05/27 07:35:50;;;;;;;1.45;1.35;;;;;;;21.82;58.06;99670.12;1781205;78;21040;-52
2021/05/27 07:38:16;;;;;;;1.37;1.25;;;;;;;21.83;58.13;99668.61;1775517;78;21176;-54
2021/05/27 07:40:42;;;;;;;1.40;1.12;;;;;;;21.87;57.79;99669.16;1772841;78;21168;-54
2021/05/27 07:43:09;;;;;;;1.40;1.20;;;;;;;21.89;57.61;99668.00;1775226;78;21375;-55
2021/05/27 07:45:35;;;;;;;1.70;1.60;;;;;;;21.91;57.96;99671.98;1776144;78;21743;-55
2021/05/27 07:48:02;;;;;;;1.75;1.65;;;;;;;21.94;57.89;99668.09;1776066;78;21083;-54
2021/05/27 07:50:28;;;;;;;1.57;1.00;;;;;;;21.96;58.06;99667.41;1779696;78;21624;-59
2021/05/27 07:52:55;;;;;;;1.37;1.20;;;;;;;21.96;58.18;99658.68;1774709;78;21094;-54
2021/05/27 07:55:21;;;;;;;3.72;1.30;;;;;;;21.98;57.87;99654.45;1776804;78;21106;-59
2021/05/27 07:57:48;;;;;;;9.45;2.47;;;;;;;22.01;57.93;99655.04;1777668;78;21130;-56
2021/05/27 08:00:15;;;;;;;1.40;1.25;;;;;;;22.04;58.00;99653.86;1778275;78;20936;-55
2021/05/27 08:02:42;;;;;;;9.40;1.87;;;;;;;22.06;57.48;99645.85;1778430;78;21441;-59
2021/05/27 08:05:10;;;;;;;3.92;1.20;;;;;;;22.10;57.36;99650.54;1778261;78;21453;-55
2021/05/27 08:07:37;;;;;;;3.52;2.02;;;;;;;22.14;57.11;99647.84;1781165;78;20944;-55
2021/05/27 08:10:04;;;;;;;7.72;1.50;;;;;;;22.15;57.20;99649.57;1780686;78;21447;-54
2021/05/27 08:12:31;;;;;;;1.07;0.98;;;;;;;22.17;57.57;99643.44;1781012;78;20915;-58
2021/05/27 08:15:00;;;;;;;1.82;1.62;;;;;;;22.20;57.21;99637.67;1779099;78;20936;-57
2021/05/27 08:17:26;;;;;;;1.90;1.00;;;;;;;22.20;57.22;99639.88;1778429;78;20980;-59
2021/05/27 08:19:54;;;;;;;1.32;1.22;;;;;;;22.20;56.65;99634.39;1774685;78;20918;-55
2021/05/27 08:22:21;;;;;;;1.15;0.90;;;;;;;22.17;56.44;99632.47;1782543;78;21009;-54
2021/05/27 08:24:47;;;;;;;23.30;1.52;;;;;;;22.14;56.66;99628.14;1778152;78;20939;-53
2021/05/27 08:27:14;;;;;;;1.25;0.90;;;;;;;22.15;57.02;99631.75;1780823;78;21347;-58
2021/05/27 08:29:42;;;;;;;3.27;0.90;;;;;;;22.14;57.11;99632.26;1777834;78;20968;-58
2021/05/27 08:32:08;;;;;;;1.90;0.75;;;;;;;22.16;56.89;99628.87;1780903;78;21019;-52
2021/05/27 08:34:35;;;;;;;1.10;0.85;;;;;;;22.16;57.30;99638.46;1778586;78;20885;-56
2021/05/27 08:37:01;;;;;;;1.95;0.80;;;;;;;22.19;57.67;99638.68;1780238;78;21493;-56
2021/05/27 08:39:28;;;;;;;2.20;0.80;;;;;;;22.21;57.06;99639.36;1777881;78;21461;-56
2021/05/27 08:41:57;;;;;;;1.45;0.70;;;;;;;22.20;56.71;99638.50;1743607;80;20936;-57
2021/05/27 08:44:23;;;;;;;2.25;0.90;;;;;;;22.22;56.63;99639.73;1738700;81;20873;-57
2021/05/27 08:46:50;;;;;;;4.92;0.80;;;;;;;22.22;56.74;99646.08;1723078;81;21076;-54
2021/05/27 08:49:17;;;;;;;10.98;0.98;;;;;;;22.22;56.70;99646.08;1774230;78;22436;-54
2021/05/27 08:51:45;;;;;;;1.30;0.80;;;;;;;22.22;56.82;99643.33;1776234;78;21732;-59
2021/05/27 08:54:11;;;;;;;1.10;0.70;;;;;;;22.22;57.27;99646.08;1771903;78;21039;-55
2021/05/27 08:56:37;;;;;;;2.55;0.70;;;;;;;22.19;56.85;99647.77;1772137;78;22309;-55
2021/05/27 08:59:04;;;;;;;1.12;1.02;;;;;;;22.14;56.91;99654.69;1774743;78;21055;-56
2021/05/27 09:01:31;;;;;;;1.22;0.93;;;;;;;22.06;56.90;99654.07;1781968;78;21513;-53
2021/05/27 09:03:58;;;;;;;0.80;0.80;;;;;;;21.98;57.24;99661.31;1776848;78;21516;-53
2021/05/27 09:06:24;;;;;;;1.75;1.12;;;;;;;21.90;57.30;99657.91;1771826;78;21066;-54
2021/05/27 09:09:05;;;;;;;1.42;1.10;;;;;;;21.80;57.32;99662.55;1774946;78;21091;-54
2021/05/27 09:11:38;;;;;;;5.42;1.40;;;;;;;21.68;57.78;99665.97;1776341;78;21373;-54
2021/05/27 09:14:06;;;;;;;8.53;1.60;;;;;;;21.60;58.45;99661.73;1775950;78;20928;-55
2021/05/27 09:16:32;;;;;;;2.35;1.00;;;;;;;21.57;58.88;99651.06;1771223;78;21129;-54
2021/05/27 09:19:17;;;;;;;12.28;1.98;;;;;;;21.58;59.07;99645.08;1769849;78;21115;-54
2021/05/27 09:21:45;;;;;;;3.27;1.42;;;;;;;21.58;59.30;99645.95;1775810;78;20956;-54
2021/05/27 09:24:13;;;;;;;1.70;1.30;;;;;;;21.59;59.35;99646.30;1776023;78;21074;-56
2021/05/27 09:26:53;;;;;;;1.22;1.12;;;;;;;21.62;59.88;99648.73;1781229;78;21094;-56
2021/05/27 09:29:20;;;;;;;7.78;2.15;;;;;;;21.67;59.27;99647.80;1775862;78;21533;-54
2021/05/27 09:32:05;;;;;;;1.22;1.10;;;;;;;21.76;59.79;99649.66;1776646;78;21461;-57
2021/05/27 09:34:46;;;;;;;1.98;1.20;;;;;;;21.88;59.11;99636.13;1776498;78;21031;-53
2021/05/27 09:37:29;;;;;;;2.50;1.65;;;;;;;22.04;59.32;99637.41;1773752;78;20961;-56
2021/05/27 09:39:55;;;;;;;2.85;1.60;;;;;;;22.18;59.52;99636.44;1778403;78;21352;-54
2021/05/27 09:42:22;;;;;;;3.52;1.65;;;;;;;22.30;58.51;99628.87;1777958;78;21703;-55
2021/05/27 09:44:49;;;;;;;2.95;2.00;;;;;;;22.36;57.96;99624.67;1776172;78;21466;-57
2021/05/27 09:47:30;;;;;;;7.72;1.80;;;;;;;22.41;57.82;99622.33;1770577;78;21064;-55
2021/05/27 09:49:59;;;;;;;1.98;1.87;;;;;;;22.45;57.71;99622.39;1773122;78;21751;-57
2021/05/27 09:52:27;;;;;;;9.03;2.02;;;;;;;22.49;57.99;99630.66;1774916;78;21414;-58
2021/05/27 09:54:58;;;;;;;7.35;2.22;;;;;;;22.48;57.81;99629.79;1752237;78;21928;-58
2021/05/27 09:57:28;;;;;;;8.00;2.27;;;;;;;22.47;57.91;99627.19;1779818;78;21607;-56
2021/05/27 09:59:55;;;;;;;3.15;2.22;;;;;;;22.44;58.08;99627.02;1776485;78;21517;-58
2021/05/27 10:02:22;;;;;;;3.17;2.77;;;;;;;22.39;58.26;99623.84;1775120;78;21023;-57
2021/05/27 10:05:02;;;;;;;3.17;3.08;;;;;;;22.34;58.41;99626.70;1776511;78;21115;-58
2021/05/27 10:07:46;;;;;;;2.95;2.75;;;;;;;22.27;58.65;99630.56;1775052;78;21130;-54
2021/05/27 10:10:16;;;;;;;5.08;2.10;;;;;;;22.21;58.64;99630.64;1775819;78;21117;-53
2021/05/27 10:12:44;;;;;;;3.80;3.50;;;;;;;22.14;58.93;99628.65;1772096;78;21708;-55
2021/05/27 10:15:13;;;;;;;5.58;3.00;;;;;;;22.08;59.36;99623.27;1774760;78;21106;-56
2021/05/27 10:17:40;;;;;;;7.97;3.52;;;;;;;22.03;59.55;99622.84;1776751;78;21684;-57
2021/05/27 10:20:11;;;;;;;3.22;3.02;;;;;;;22.00;59.51;99623.16;1774219;78;21437;-56
2021/05/27 10:22:38;;;;;;;2.98;2.77;;;;;;;21.95;59.52;99624.60;1776274;78;21459;-55
2021/05/27 10:25:07;;;;;;;3.20;2.87;;;;;;;21.90;59.70;99621.78;1781817;78;21533;-57
2021/05/27 10:27:34;;;;;;;1.42;1.30;;;;;;;;;;1778964;78;21107;-54
2021/05/27 10:30:02;;;;;;;1.90;1.80;;;;;;;21.81;59.85;99620.44;1774665;78;21119;-55
2021/05/27 10:32:28;;;;;;;1.52;1.42;;;;;;;21.78;60.09;99617.98;1744929;80;21107;-53
2021/05/27 10:34:55;;;;;;;11.15;1.98;;;;;;;21.77;60.36;99619.02;1772366;78;21150;-55
2021/05/27 10:37:41;;;;;;;1.90;1.52;;;;;;;21.76;60.57;99626.38;1778358;78;21067;-54
2021/05/27 10:40:16;;;;;;;2.33;1.60;;;;;;;21.74;60.44;99620.68;1771109;78;21150;-54
2021/05/27 10:43:05;;;;;;;1.92;1.82;;;;;;;21.71;60.57;99615.48;1776033;78;21064;-57
2021/05/27 10:45:33;;;;;;;2.47;1.25;;;;;;;21.66;60.75;99623.30;1775674;78;22171;-55
2021/05/27 10:48:17;;;;;;;5.47;2.00;;;;;;;21.58;61.57;99630.88;1778476;78;20960;-53
2021/05/27 10:53:40;;;;;;;4.85;2.15;;;;;;;21.33;64.00;99648.78;1779106;78;20287;-55
2021/05/27 10:56:10;;;;;;;4.22;1.75;;;;;;;21.12;65.19;99657.59;1778735;78;21072;-54
2021/05/27 10:58:53;;;;;;;1.50;1.27;;;;;;;20.97;66.45;99650.30;1777614;78;21509;-54
2021/05/27 11:01:35;;;;;;;4.00;2.02;;;;;;;20.81;67.61;99665.55;1777537;78;21411;-53
2021/05/27 11:04:07;;;;;;;2.45;1.30;;;;;;;20.64;68.69;99668.45;1776025;78;22387;-51
2021/05/27 11:06:43;;;;;;;5.00;1.37;;;;;;;20.46;69.77;99666.02;1777787;78;20932;-55
2021/05/27 11:09:24;;;;;;;1.92;1.52;;;;;;;20.30;70.49;99678.80;1775469;78;21079;-53
2021/05/27 11:12:15;;;;;;;2.50;1.87;;;;;;;20.15;71.25;99668.75;1776341;78;21003;-54
2021/05/27 11:15:04;;;;;;;2.37;1.82;;;;;;;20.06;71.98;99664.60;1775782;78;21103;-51
2021/05/27 11:17:30;;;;;;;4.72;1.42;;;;;;;19.96;72.47;99664.55;1777092;78;21318;-55
2021/05/27 11:22:46;;;;;;;2.15;1.75;;;;;;;19.86;73.43;99655.42;1779739;78;20953;-52
2021/05/27 11:25:25;;;;;;;3.62;1.57;;;;;;;19.82;73.61;99647.98;1779492;78;21777;-52
2021/05/27 11:28:03;;;;;;;2.30;2.05;;;;;;;19.77;74.09;99648.03;1778846;78;20916;-57
2021/05/27 11:30:41;;;;;;;3.70;2.33;;;;;;;19.73;74.32;99641.13;1779743;78;20892;-50
2021/05/27 11:33:31;;;;;;;3.33;1.65;;;;;;;19.69;74.58;99636.42;1775304;78;20934;-51
2021/05/27 11:36:07;;;;;;;2.35;1.42;;;;;;;19.69;74.75;99648.72;1778299;78;21442;-53
2021/05/27 11:38:37;;;;;;;1.52;1.30;;;;;;;19.65;74.96;99649.47;1779723;78;21280;-55
2021/05/27 11:41:07;;;;;;;4.53;2.05;;;;;;;19.61;75.12;99649.38;1776645;78;20976;-52
2021/05/27 11:43:38;;;;;;;2.58;1.40;;;;;;;19.61;75.29;99652.61;1778452;78;20945;-50
2021/05/27 11:46:17;;;;;;;1.80;1.70;;;;;;;19.60;75.48;99653.11;1776785;78;20963;-49
2021/05/27 11:51:34;;;;;;;1.87;1.75;;;;;;;19.60;75.79;99650.37;1748731;80;21106;-56
2021/05/27 11:54:03;;;;;;;1.95;1.75;;;;;;;19.63;76.06;99656.95;1675466;83;21137;-56
2021/05/27 11:56:43;;;;;;;3.30;2.22;;;;;;;19.63;76.06;99636.47;1715039;82;20953;-56
2021/05/27 12:00:50;;;;;;;2.20;1.92;;;;;;;19.74;76.30;99623.72;1792799;78;28430;-49